sensor_id;sensor_type;location;lat;lon;timestamp;pressure;altitude;pressure_sealevel;temperature;humidity
24620;BME280;12763;55.802;37.404;2022-11-20T00:01:08;99523.41;;;1.07;85.47
24620;BME280;12763;55.802;37.404;2022-11-20T00:03:40;99525.81;;;1.10;85.26
24620;BME280;12763;55.802;37.404;2022-11-20T00:06:09;99527.00;;;1.07;85.56
24620;BME280;12763;55.802;37.404;2022-11-20T00:08:36;99526.06;;;0.99;85.83
24620;BME280;12763;55.802;37.404;2022-11-20T00:11:05;99525.59;;;1.03;86.10
24620;BME280;12763;55.802;37.404;2022-11-20T00:13:33;99522.88;;;1.03;85.00
24620;BME280;12763;55.802;37.404;2022-11-20T00:16:02;99529.47;;;1.01;85.81
24620;BME280;12763;55.802;37.404;2022-11-20T00:18:29;99527.69;;;1.09;85.72
24620;BME280;12763;55.802;37.404;2022-11-20T00:21:10;99520.91;;;1.13;86.03
24620;BME280;12763;55.802;37.404;2022-11-20T00:23:37;99530.78;;;1.14;85.75
24620;BME280;12763;55.802;37.404;2022-11-20T00:26:09;99530.59;;;0.90;85.48
24620;BME280;12763;55.802;37.404;2022-11-20T00:28:37;99535.47;;;1.04;85.78
24620;BME280;12763;55.802;37.404;2022-11-20T00:31:05;99521.88;;;1.04;85.82
24620;BME280;12763;55.802;37.404;2022-11-20T00:33:35;99532.03;;;1.02;85.83
24620;BME280;12763;55.802;37.404;2022-11-20T00:36:13;99526.28;;;1.05;85.62
24620;BME280;12763;55.802;37.404;2022-11-20T00:38:45;99530.72;;;1.06;85.66
24620;BME280;12763;55.802;37.404;2022-11-20T00:41:14;99526.06;;;0.99;85.85
24620;BME280;12763;55.802;37.404;2022-11-20T00:43:41;99534.06;;;1.00;85.61
24620;BME280;12763;55.802;37.404;2022-11-20T00:48:43;99524.59;;;1.04;86.18
24620;BME280;12763;55.802;37.404;2022-11-20T00:51:11;99521.81;;;0.96;86.42
24620;BME280;12763;55.802;37.404;2022-11-20T00:53:38;99529.66;;;0.99;85.89
24620;BME280;12763;55.802;37.404;2022-11-20T00:56:12;99522.88;;;1.03;85.32
24620;BME280;12763;55.802;37.404;2022-11-20T00:58:42;99520.63;;;0.99;85.66
24620;BME280;12763;55.802;37.404;2022-11-20T01:01:22;99530.53;;;1.08;85.23
24620;BME280;12763;55.802;37.404;2022-11-20T01:03:54;99531.88;;;1.04;85.64
24620;BME280;12763;55.802;37.404;2022-11-20T01:06:26;99530.22;;;0.85;85.89
24620;BME280;12763;55.802;37.404;2022-11-20T01:09:00;99526.94;;;0.99;85.46
24620;BME280;12763;55.802;37.404;2022-11-20T01:11:33;99520.09;;;0.95;85.52
24620;BME280;12763;55.802;37.404;2022-11-20T01:14:02;99529.97;;;0.96;85.20
24620;BME280;12763;55.802;37.404;2022-11-20T01:16:32;99535.16;;;1.07;85.02
24620;BME280;12763;55.802;37.404;2022-11-20T01:19:02;99525.44;;;1.05;84.71
24620;BME280;12763;55.802;37.404;2022-11-20T01:21:34;99529.31;;;1.02;84.78
24620;BME280;12763;55.802;37.404;2022-11-20T01:24:06;99527.88;;;0.90;84.82
24620;BME280;12763;55.802;37.404;2022-11-20T01:26:39;99523.63;;;1.13;84.36
24620;BME280;12763;55.802;37.404;2022-11-20T01:29:07;99532.56;;;1.06;84.10
24620;BME280;12763;55.802;37.404;2022-11-20T01:31:38;99530.53;;;1.08;84.03
24620;BME280;12763;55.802;37.404;2022-11-20T01:34:23;99531.31;;;1.18;84.17
24620;BME280;12763;55.802;37.404;2022-11-20T01:36:50;99534.13;;;1.08;84.03
24620;BME280;12763;55.802;37.404;2022-11-20T01:39:28;99527.69;;;1.09;83.38
24620;BME280;12763;55.802;37.404;2022-11-20T01:41:55;99532.13;;;1.10;83.87
24620;BME280;12763;55.802;37.404;2022-11-20T01:45:00;99529.41;;;1.10;83.60
24620;BME280;12763;55.802;37.404;2022-11-20T01:47:46;99540.59;;;1.07;83.14
24620;BME280;12763;55.802;37.404;2022-11-20T01:50:26;99550.72;;;1.05;83.14
24620;BME280;12763;55.802;37.404;2022-11-20T01:53:05;99548.56;;;1.09;83.38
24620;BME280;12763;55.802;37.404;2022-11-20T01:55:36;99549.63;;;1.16;83.21
24620;BME280;12763;55.802;37.404;2022-11-20T01:58:08;99547.38;;;1.11;83.12
24620;BME280;12763;55.802;37.404;2022-11-20T02:00:35;99551.13;;;1.10;82.82
24620;BME280;12763;55.802;37.404;2022-11-20T02:03:09;99550.78;;;1.13;82.92
24620;BME280;12763;55.802;37.404;2022-11-20T02:08:25;99566.66;;;1.00;82.83
24620;BME280;12763;55.802;37.404;2022-11-20T02:10:53;99565.59;;;0.93;82.62
24620;BME280;12763;55.802;37.404;2022-11-20T02:13:20;99566.97;;;0.97;82.80
24620;BME280;12763;55.802;37.404;2022-11-20T02:16:08;99568.25;;;0.85;82.70
24620;BME280;12763;55.802;37.404;2022-11-20T02:18:40;99568.56;;;0.82;82.70
24620;BME280;12763;55.802;37.404;2022-11-20T02:26:28;99580.81;;;0.86;82.80
24620;BME280;12763;55.802;37.404;2022-11-20T02:28:55;99582.28;;;0.81;82.58
24620;BME280;12763;55.802;37.404;2022-11-20T02:31:22;99583.75;;;0.75;82.61
24620;BME280;12763;55.802;37.404;2022-11-20T02:33:54;99589.50;;;0.72;82.92
24620;BME280;12763;55.802;37.404;2022-11-20T02:36:21;99588.13;;;0.68;82.71
24620;BME280;12763;55.802;37.404;2022-11-20T02:38:48;99591.22;;;0.73;82.65
24620;BME280;12763;55.802;37.404;2022-11-20T02:41:15;99595.97;;;0.71;82.58
24620;BME280;12763;55.802;37.404;2022-11-20T02:43:47;99587.19;;;0.77;82.66
24620;BME280;12763;55.802;37.404;2022-11-20T02:46:13;99590.16;;;0.66;82.71
24620;BME280;12763;55.802;37.404;2022-11-20T02:48:43;99581.03;;;0.75;82.95
24620;BME280;12763;55.802;37.404;2022-11-20T02:51:09;99584.91;;;0.73;82.77
24620;BME280;12763;55.802;37.404;2022-11-20T02:53:35;99587.19;;;0.77;82.83
24620;BME280;12763;55.802;37.404;2022-11-20T02:56:06;99588.03;;;0.78;82.59
24620;BME280;12763;55.802;37.404;2022-11-20T02:58:32;99600.28;;;0.82;82.77
24620;BME280;12763;55.802;37.404;2022-11-20T03:00:59;99587.88;;;0.79;82.69
24620;BME280;12763;55.802;37.404;2022-11-20T03:03:32;99599.75;;;0.78;82.37
24620;BME280;12763;55.802;37.404;2022-11-20T03:06:02;99596.34;;;0.76;82.50
24620;BME280;12763;55.802;37.404;2022-11-20T03:08:27;99601.78;;;0.76;82.09
24620;BME280;12763;55.802;37.404;2022-11-20T03:11:01;99607.19;;;0.76;82.06
24620;BME280;12763;55.802;37.404;2022-11-20T03:13:28;99607.44;;;0.83;81.75
24620;BME280;12763;55.802;37.404;2022-11-20T03:15:57;99599.75;;;0.78;81.86
24620;BME280;12763;55.802;37.404;2022-11-20T03:18:23;99592.69;;;0.68;81.88
24620;BME280;12763;55.802;37.404;2022-11-20T03:20:59;99604.78;;;0.73;81.62
24620;BME280;12763;55.802;37.404;2022-11-20T03:23:26;99603.31;;;0.61;81.81
24620;BME280;12763;55.802;37.404;2022-11-20T03:26:16;99605.03;;;0.62;81.66
24620;BME280;12763;55.802;37.404;2022-11-20T03:28:50;99604.25;;;0.52;81.86
24620;BME280;12763;55.802;37.404;2022-11-20T03:31:22;99602.69;;;0.67;81.80
24620;BME280;12763;55.802;37.404;2022-11-20T03:33:52;99602.88;;;0.66;81.64
24620;BME280;12763;55.802;37.404;2022-11-20T03:36:20;99610.75;;;0.59;81.23
24620;BME280;12763;55.802;37.404;2022-11-20T03:38:49;99606.03;;;0.61;81.55
24620;BME280;12763;55.802;37.404;2022-11-20T03:41:24;99602.91;;;0.56;81.58
24620;BME280;12763;55.802;37.404;2022-11-20T03:43:55;99608.03;;;0.59;81.29
24620;BME280;12763;55.802;37.404;2022-11-20T03:46:22;99619.38;;;0.54;81.41
24620;BME280;12763;55.802;37.404;2022-11-20T03:48:51;99617.09;;;0.50;81.51
24620;BME280;12763;55.802;37.404;2022-11-20T03:51:27;99618.81;;;0.51;81.41
24620;BME280;12763;55.802;37.404;2022-11-20T03:53:59;99620.75;;;0.58;81.40
24620;BME280;12763;55.802;37.404;2022-11-20T03:56:31;99624.72;;;0.64;81.31
24620;BME280;12763;55.802;37.404;2022-11-20T03:58:59;99620.75;;;0.41;81.35
24620;BME280;12763;55.802;37.404;2022-11-20T04:01:34;99625.34;;;0.58;81.29
24620;BME280;12763;55.802;37.404;2022-11-20T04:04:06;99629.00;;;0.67;80.98
24620;BME280;12763;55.802;37.404;2022-11-20T04:06:36;99633.97;;;0.71;80.90
24620;BME280;12763;55.802;37.404;2022-11-20T04:09:07;99629.00;;;0.67;81.04
24620;BME280;12763;55.802;37.404;2022-11-20T04:11:39;99636.63;;;0.63;80.69
24620;BME280;12763;55.802;37.404;2022-11-20T04:14:19;99637.88;;;0.69;80.58
24620;BME280;12763;55.802;37.404;2022-11-20T04:16:46;99640.41;;;0.70;80.89
24620;BME280;12763;55.802;37.404;2022-11-20T04:19:15;99645.53;;;0.73;80.68
24620;BME280;12763;55.802;37.404;2022-11-20T04:21:47;99649.25;;;0.72;80.91
24620;BME280;12763;55.802;37.404;2022-11-20T04:24:19;99644.53;;;0.74;80.58
24620;BME280;12763;55.802;37.404;2022-11-20T04:26:46;99653.59;;;0.65;80.71
24620;BME280;12763;55.802;37.404;2022-11-20T04:29:16;99661.16;;;0.71;80.62
24620;BME280;12763;55.802;37.404;2022-11-20T04:31:42;99671.63;;;0.66;80.55
24620;BME280;12763;55.802;37.404;2022-11-20T04:34:17;99663.00;;;0.71;80.58
24620;BME280;12763;55.802;37.404;2022-11-20T04:36:44;99665.25;;;0.75;80.44
24620;BME280;12763;55.802;37.404;2022-11-20T04:39:17;99669.00;;;0.74;80.87
24620;BME280;12763;55.802;37.404;2022-11-20T04:41:46;99667.28;;;0.73;80.81
24620;BME280;12763;55.802;37.404;2022-11-20T04:44:26;99670.69;;;0.75;80.59
24620;BME280;12763;55.802;37.404;2022-11-20T04:46:55;99675.81;;;0.78;80.69
24620;BME280;12763;55.802;37.404;2022-11-20T04:49:24;99679.22;;;0.80;80.31
24620;BME280;12763;55.802;37.404;2022-11-20T04:51:53;99684.81;;;0.79;80.31
24620;BME280;12763;55.802;37.404;2022-11-20T04:54:20;99692.34;;;0.85;79.98
24620;BME280;12763;55.802;37.404;2022-11-20T04:56:52;99689.47;;;0.86;79.56
24620;BME280;12763;55.802;37.404;2022-11-20T04:59:18;99688.94;;;0.83;79.87
24620;BME280;12763;55.802;37.404;2022-11-20T05:01:47;99690.41;;;0.77;79.80
24620;BME280;12763;55.802;37.404;2022-11-20T05:04:13;99691.03;;;0.71;79.82
24620;BME280;12763;55.802;37.404;2022-11-20T05:06:40;99691.72;;;0.73;79.89
24620;BME280;12763;55.802;37.404;2022-11-20T05:09:06;99694.13;;;0.76;79.59
24620;BME280;12763;55.802;37.404;2022-11-20T05:11:33;99696.00;;;0.76;79.81
24620;BME280;12763;55.802;37.404;2022-11-20T05:14:01;99697.63;;;0.69;79.77
24620;BME280;12763;55.802;37.404;2022-11-20T05:16:37;99701.59;;;0.74;80.00
24620;BME280;12763;55.802;37.404;2022-11-20T05:19:04;99711.59;;;0.74;79.78
24620;BME280;12763;55.802;37.404;2022-11-20T05:21:31;99713.81;;;0.61;80.02
24620;BME280;12763;55.802;37.404;2022-11-20T05:24:00;99721.19;;;0.68;80.27
24620;BME280;12763;55.802;37.404;2022-11-20T05:26:29;99715.31;;;0.73;80.12
24620;BME280;12763;55.802;37.404;2022-11-20T05:29:03;99704.00;;;0.77;80.63
24620;BME280;12763;55.802;37.404;2022-11-20T05:31:34;99715.94;;;0.84;80.13
24620;BME280;12763;55.802;37.404;2022-11-20T05:34:04;99716.25;;;0.81;80.62
24620;BME280;12763;55.802;37.404;2022-11-20T05:36:36;99721.44;;;0.75;80.55
24620;BME280;12763;55.802;37.404;2022-11-20T05:39:03;99724.09;;;0.84;80.50
24620;BME280;12763;55.802;37.404;2022-11-20T05:41:32;99733.81;;;0.87;80.11
24620;BME280;12763;55.802;37.404;2022-11-20T05:43:59;99736.13;;;0.82;79.65
24620;BME280;12763;55.802;37.404;2022-11-20T05:46:33;99734.72;;;0.78;80.24
24620;BME280;12763;55.802;37.404;2022-11-20T05:49:03;99729.28;;;0.78;80.64
24620;BME280;12763;55.802;37.404;2022-11-20T05:51:41;99731.25;;;0.85;81.10
24620;BME280;12763;55.802;37.404;2022-11-20T05:54:11;99734.38;;;0.90;81.13
24620;BME280;12763;55.802;37.404;2022-11-20T05:56:43;99743.78;;;0.96;81.04
24620;BME280;12763;55.802;37.404;2022-11-20T05:59:09;99741.19;;;0.94;80.50
24620;BME280;12763;55.802;37.404;2022-11-20T06:01:38;99753.47;;;0.98;80.74
24620;BME280;12763;55.802;37.404;2022-11-20T06:04:05;99751.44;;;1.00;80.87
24620;BME280;12763;55.802;37.404;2022-11-20T06:06:32;99763.34;;;0.99;81.16
24620;BME280;12763;55.802;37.404;2022-11-20T06:08:59;99760.47;;;1.01;80.84
24620;BME280;12763;55.802;37.404;2022-11-20T06:11:28;99767.75;;;1.00;81.07
24620;BME280;12763;55.802;37.404;2022-11-20T06:13:58;99772.59;;;1.06;80.88
24620;BME280;12763;55.802;37.404;2022-11-20T06:16:31;99763.75;;;1.04;81.12
24620;BME280;12763;55.802;37.404;2022-11-20T06:19:00;99773.66;;;1.13;80.76
24620;BME280;12763;55.802;37.404;2022-11-20T06:21:30;99776.16;;;1.07;80.73
24620;BME280;12763;55.802;37.404;2022-11-20T06:23:59;99786.00;;;1.08;80.75
24620;BME280;12763;55.802;37.404;2022-11-20T06:26:26;99791.31;;;1.09;80.70
24620;BME280;12763;55.802;37.404;2022-11-20T06:28:55;99781.13;;;1.11;80.68
24620;BME280;12763;55.802;37.404;2022-11-20T06:31:25;99789.06;;;1.23;80.54
24620;BME280;12763;55.802;37.404;2022-11-20T06:33:55;99792.78;;;1.22;80.70
24620;BME280;12763;55.802;37.404;2022-11-20T06:36:25;99800.03;;;1.13;80.46
24620;BME280;12763;55.802;37.404;2022-11-20T06:38:59;99792.94;;;1.20;80.33
24620;BME280;12763;55.802;37.404;2022-11-20T06:41:26;99792.47;;;1.25;80.72
24620;BME280;12763;55.802;37.404;2022-11-20T06:43:54;99787.59;;;1.28;80.26
24620;BME280;12763;55.802;37.404;2022-11-20T06:46:22;99791.78;;;1.23;80.40
24620;BME280;12763;55.802;37.404;2022-11-20T06:48:49;99790.41;;;1.18;80.38
24620;BME280;12763;55.802;37.404;2022-11-20T06:51:17;99787.28;;;1.31;80.48
24620;BME280;12763;55.802;37.404;2022-11-20T06:53:53;99784.09;;;1.36;80.46
24620;BME280;12763;55.802;37.404;2022-11-20T06:56:22;99786.75;;;1.28;80.52
24620;BME280;12763;55.802;37.404;2022-11-20T06:58:49;99789.53;;;1.36;80.54
24620;BME280;12763;55.802;37.404;2022-11-20T07:01:15;99786.28;;;1.50;79.56
24620;BME280;12763;55.802;37.404;2022-11-20T07:03:42;99784.06;;;1.63;79.57
24620;BME280;12763;55.802;37.404;2022-11-20T07:06:09;99781.25;;;1.72;79.57
24620;BME280;12763;55.802;37.404;2022-11-20T07:08:36;99765.03;;;1.63;78.92
24620;BME280;12763;55.802;37.404;2022-11-20T07:11:05;99781.06;;;1.74;78.98
24620;BME280;12763;55.802;37.404;2022-11-20T07:13:32;99797.47;;;1.47;78.91
24620;BME280;12763;55.802;37.404;2022-11-20T07:16:01;99797.78;;;1.44;79.05
24620;BME280;12763;55.802;37.404;2022-11-20T07:18:36;99790.50;;;1.62;78.62
24620;BME280;12763;55.802;37.404;2022-11-20T07:21:04;99790.94;;;1.75;78.71
24620;BME280;12763;55.802;37.404;2022-11-20T07:23:31;99777.22;;;1.76;78.79
24620;BME280;12763;55.802;37.404;2022-11-20T07:25:58;99773.06;;;1.90;78.06
24620;BME280;12763;55.802;37.404;2022-11-20T07:28:24;99774.25;;;1.88;78.05
24620;BME280;12763;55.802;37.404;2022-11-20T07:30:51;99798.19;;;1.84;77.65
24620;BME280;12763;55.802;37.404;2022-11-20T07:33:18;99800.03;;;1.84;77.78
24620;BME280;12763;55.802;37.404;2022-11-20T07:35:44;99803.00;;;1.90;77.67
24620;BME280;12763;55.802;37.404;2022-11-20T07:38:11;99808.03;;;1.85;77.30
24620;BME280;12763;55.802;37.404;2022-11-20T07:40:38;99817.47;;;1.73;77.75
24620;BME280;12763;55.802;37.404;2022-11-20T07:43:04;99807.06;;;1.68;77.83
24620;BME280;12763;55.802;37.404;2022-11-20T07:45:30;99813.97;;;1.63;77.48
24620;BME280;12763;55.802;37.404;2022-11-20T07:47:57;99807.22;;;1.85;77.43
24620;BME280;12763;55.802;37.404;2022-11-20T07:50:23;99798.88;;;1.86;76.98
24620;BME280;12763;55.802;37.404;2022-11-20T07:52:50;99804.00;;;1.89;76.68
24620;BME280;12763;55.802;37.404;2022-11-20T07:55:16;99812.50;;;1.68;77.03
24620;BME280;12763;55.802;37.404;2022-11-20T07:57:42;99817.22;;;1.84;76.47
24620;BME280;12763;55.802;37.404;2022-11-20T08:00:10;99814.56;;;1.92;76.62
24620;BME280;12763;55.802;37.404;2022-11-20T08:02:41;99811.63;;;2.03;76.23
24620;BME280;12763;55.802;37.404;2022-11-20T08:05:09;99808.72;;;2.05;76.02
24620;BME280;12763;55.802;37.404;2022-11-20T08:07:39;99808.56;;;2.06;75.86
24620;BME280;12763;55.802;37.404;2022-11-20T08:10:08;99823.56;;;2.10;76.04
24620;BME280;12763;55.802;37.404;2022-11-20T08:12:34;99808.09;;;2.11;76.20
24620;BME280;12763;55.802;37.404;2022-11-20T08:15:19;99816.63;;;2.16;75.43
24620;BME280;12763;55.802;37.404;2022-11-20T08:17:45;99810.56;;;2.22;75.62
24620;BME280;12763;55.802;37.404;2022-11-20T08:20:12;99820.16;;;2.08;76.04
24620;BME280;12763;55.802;37.404;2022-11-20T08:22:44;99831.72;;;2.10;75.95
24620;BME280;12763;55.802;37.404;2022-11-20T08:25:10;99834.69;;;1.99;76.02
24620;BME280;12763;55.802;37.404;2022-11-20T08:27:38;99831.97;;;1.99;76.46
24620;BME280;12763;55.802;37.404;2022-11-20T08:30:08;99824.22;;;2.04;75.87
24620;BME280;12763;55.802;37.404;2022-11-20T08:32:34;99834.75;;;2.07;75.61
24620;BME280;12763;55.802;37.404;2022-11-20T08:35:04;99844.91;;;1.97;75.86
24620;BME280;12763;55.802;37.404;2022-11-20T08:37:31;99849.19;;;1.82;76.49
24620;BME280;12763;55.802;37.404;2022-11-20T08:39:58;99851.81;;;1.74;76.76
24620;BME280;12763;55.802;37.404;2022-11-20T08:42:24;99854.22;;;1.77;76.85
24620;BME280;12763;55.802;37.404;2022-11-20T08:44:50;99854.16;;;1.87;76.29
24620;BME280;12763;55.802;37.404;2022-11-20T08:47:16;99854.72;;;1.90;76.19
24620;BME280;12763;55.802;37.404;2022-11-20T08:49:43;99854.16;;;1.87;76.98
24620;BME280;12763;55.802;37.404;2022-11-20T08:52:09;99861.53;;;1.94;76.45
24620;BME280;12763;55.802;37.404;2022-11-20T08:54:36;99857.66;;;2.14;75.95
24620;BME280;12763;55.802;37.404;2022-11-20T08:57:02;99864.81;;;2.15;75.41
24620;BME280;12763;55.802;37.404;2022-11-20T08:59:28;99869.16;;;2.08;75.83
24620;BME280;12763;55.802;37.404;2022-11-20T09:01:58;99876.31;;;2.09;75.75
24620;BME280;12763;55.802;37.404;2022-11-20T09:04:30;99883.63;;;1.91;76.23
24620;BME280;12763;55.802;37.404;2022-11-20T09:06:56;99886.03;;;2.12;76.45
24620;BME280;12763;55.802;37.404;2022-11-20T09:09:22;99892.41;;;2.20;76.06
24620;BME280;12763;55.802;37.404;2022-11-20T09:11:48;99899.84;;;2.18;75.50
24620;BME280;12763;55.802;37.404;2022-11-20T09:14:16;99905.41;;;2.26;75.44
24620;BME280;12763;55.802;37.404;2022-11-20T09:16:44;99907.56;;;2.05;76.15
24620;BME280;12763;55.802;37.404;2022-11-20T09:19:11;99905.88;;;2.04;75.86
24620;BME280;12763;55.802;37.404;2022-11-20T09:21:37;99910.38;;;2.13;75.91
24620;BME280;12763;55.802;37.404;2022-11-20T09:24:07;99928.25;;;1.81;76.80
24620;BME280;12763;55.802;37.404;2022-11-20T09:26:34;99918.25;;;1.99;76.84
24620;BME280;12763;55.802;37.404;2022-11-20T09:29:00;99932.94;;;2.23;76.54
24620;BME280;12763;55.802;37.404;2022-11-20T09:31:27;99930.84;;;2.17;76.36
24620;BME280;12763;55.802;37.404;2022-11-20T09:33:53;99938.78;;;2.11;76.64
24620;BME280;12763;55.802;37.404;2022-11-20T09:36:20;99943.84;;;2.23;76.73
24620;BME280;12763;55.802;37.404;2022-11-20T09:38:47;99939.22;;;2.24;76.90
24620;BME280;12763;55.802;37.404;2022-11-20T09:41:54;99943.66;;;2.07;77.69
24620;BME280;12763;55.802;37.404;2022-11-20T09:47:06;99950.69;;;2.10;78.20
24620;BME280;12763;55.802;37.404;2022-11-20T09:49:50;99954.16;;;1.85;79.16
24620;BME280;12763;55.802;37.404;2022-11-20T09:55:01;99940.72;;;1.56;82.06
24620;BME280;12763;55.802;37.404;2022-11-20T09:57:35;99944.75;;;1.79;80.49
24620;BME280;12763;55.802;37.404;2022-11-20T10:00:09;99951.88;;;1.80;81.03
24620;BME280;12763;55.802;37.404;2022-11-20T10:02:52;99934.03;;;1.50;81.82
24620;BME280;12763;55.802;37.404;2022-11-20T10:05:31;99940.81;;;1.64;81.63
24620;BME280;12763;55.802;37.404;2022-11-20T10:08:24;99954.28;;;1.65;82.08
24620;BME280;12763;55.802;37.404;2022-11-20T10:14:15;99964.00;;;1.68;82.08
24620;BME280;12763;55.802;37.404;2022-11-20T10:17:15;99971.22;;;1.77;82.19
24620;BME280;12763;55.802;37.404;2022-11-20T10:22:22;99960.38;;;1.95;82.07
24620;BME280;12763;55.802;37.404;2022-11-20T10:30:41;99973.81;;;1.96;81.67
24620;BME280;12763;55.802;37.404;2022-11-20T10:36:07;99969.75;;;1.38;83.62
24620;BME280;12763;55.802;37.404;2022-11-20T10:39:20;99969.28;;;1.69;83.14
24620;BME280;12763;55.802;37.404;2022-11-20T10:41:50;99965.34;;;1.82;82.16
24620;BME280;12763;55.802;37.404;2022-11-20T10:44:26;99966.72;;;1.68;82.82
24620;BME280;12763;55.802;37.404;2022-11-20T10:47:18;99966.38;;;1.53;82.79
24620;BME280;12763;55.802;37.404;2022-11-20T10:49:53;99971.53;;;1.47;83.53
24620;BME280;12763;55.802;37.404;2022-11-20T11:00:21;99983.66;;;1.25;84.65
24620;BME280;12763;55.802;37.404;2022-11-20T11:02:52;99989.22;;;1.33;85.45
24620;BME280;12763;55.802;37.404;2022-11-20T11:05:44;99980.75;;;1.36;85.44
24620;BME280;12763;55.802;37.404;2022-11-20T11:08:16;100001.00;;;1.24;84.32
24620;BME280;12763;55.802;37.404;2022-11-20T11:10:55;99995.00;;;1.21;85.00
24620;BME280;12763;55.802;37.404;2022-11-20T11:13:28;100007.44;;;1.23;84.13
24620;BME280;12763;55.802;37.404;2022-11-20T11:15:58;100009.16;;;1.24;83.13
24620;BME280;12763;55.802;37.404;2022-11-20T11:18:30;100010.78;;;1.44;82.69
24620;BME280;12763;55.802;37.404;2022-11-20T11:20:59;100019.22;;;0.95;82.37
24620;BME280;12763;55.802;37.404;2022-11-20T11:23:32;100003.78;;;1.05;81.99
24620;BME280;12763;55.802;37.404;2022-11-20T11:26:01;100008.53;;;1.30;81.12
24620;BME280;12763;55.802;37.404;2022-11-20T11:28:28;100009.34;;;1.13;80.98
24620;BME280;12763;55.802;37.404;2022-11-20T11:30:55;100012.13;;;1.31;80.47
24620;BME280;12763;55.802;37.404;2022-11-20T11:33:23;99998.13;;;1.53;80.12
24620;BME280;12763;55.802;37.404;2022-11-20T11:35:55;100003.69;;;1.61;79.17
24620;BME280;12763;55.802;37.404;2022-11-20T11:38:39;100019.97;;;1.34;79.84
24620;BME280;12763;55.802;37.404;2022-11-20T11:41:19;100015.41;;;1.34;79.74
24620;BME280;12763;55.802;37.404;2022-11-20T11:43:54;100012.28;;;1.19;79.43
24620;BME280;12763;55.802;37.404;2022-11-20T11:46:44;100006.19;;;1.45;79.05
24620;BME280;12763;55.802;37.404;2022-11-20T11:49:20;100006.56;;;1.23;78.57
24620;BME280;12763;55.802;37.404;2022-11-20T11:54:25;100006.06;;;1.00;78.25
24620;BME280;12763;55.802;37.404;2022-11-20T11:56:53;100016.91;;;1.00;78.51
24620;BME280;12763;55.802;37.404;2022-11-20T11:59:33;100020.16;;;1.32;77.60
24620;BME280;12763;55.802;37.404;2022-11-20T12:02:15;100018.25;;;1.33;77.63
24620;BME280;12763;55.802;37.404;2022-11-20T12:04:50;100023.94;;;1.49;77.29
24620;BME280;12763;55.802;37.404;2022-11-20T12:07:39;100024.19;;;1.55;76.67
24620;BME280;12763;55.802;37.404;2022-11-20T12:10:16;100018.66;;;1.74;76.69
24620;BME280;12763;55.802;37.404;2022-11-20T12:12:51;100026.72;;;1.66;76.21
24620;BME280;12763;55.802;37.404;2022-11-20T12:15:27;100032.16;;;1.66;76.01
24620;BME280;12763;55.802;37.404;2022-11-20T12:17:54;100023.94;;;1.49;76.44
24620;BME280;12763;55.802;37.404;2022-11-20T12:20:26;100022.50;;;1.45;76.09
24620;BME280;12763;55.802;37.404;2022-11-20T12:25:34;100024.19;;;1.18;77.02
24620;BME280;12763;55.802;37.404;2022-11-20T12:28:20;100026.41;;;1.33;75.83
24620;BME280;12763;55.802;37.404;2022-11-20T12:33:54;100018.22;;;1.52;75.46
24620;BME280;12763;55.802;37.404;2022-11-20T12:50:32;100020.44;;;1.19;75.38
24620;BME280;12763;55.802;37.404;2022-11-20T12:55:42;100024.47;;;1.15;75.36
24620;BME280;12763;55.802;37.404;2022-11-20T12:58:29;100028.13;;;1.34;75.07
24620;BME280;12763;55.802;37.404;2022-11-20T13:01:06;100036.88;;;1.28;75.03
24620;BME280;12763;55.802;37.404;2022-11-20T13:03:57;100027.63;;;1.21;74.52
24620;BME280;12763;55.802;37.404;2022-11-20T13:06:26;100037.22;;;1.15;75.30
24620;BME280;12763;55.802;37.404;2022-11-20T13:08:54;100044.84;;;1.02;75.35
24620;BME280;12763;55.802;37.404;2022-11-20T13:12:01;100043.38;;;1.07;74.91
24620;BME280;12763;55.802;37.404;2022-11-20T13:14:42;100055.38;;;1.14;74.96
24620;BME280;12763;55.802;37.404;2022-11-20T13:17:19;100053.59;;;1.42;74.80
24620;BME280;12763;55.802;37.404;2022-11-20T13:19:54;100048.59;;;1.38;74.32
24620;BME280;12763;55.802;37.404;2022-11-20T13:22:29;100045.16;;;1.36;74.42
24620;BME280;12763;55.802;37.404;2022-11-20T13:24:55;100037.16;;;1.25;74.63
24620;BME280;12763;55.802;37.404;2022-11-20T13:27:23;100044.63;;;1.23;75.11
24620;BME280;12763;55.802;37.404;2022-11-20T13:30:13;100056.66;;;1.20;74.68
24620;BME280;12763;55.802;37.404;2022-11-20T13:33:36;100061.53;;;1.16;75.21
24620;BME280;12763;55.802;37.404;2022-11-20T13:35:42;100057.56;;;1.01;76.06
24620;BME280;12763;55.802;37.404;2022-11-20T13:38:10;100063.00;;;1.01;75.99
24620;BME280;12763;55.802;37.404;2022-11-20T13:40:54;100066.81;;;1.18;75.28
24620;BME280;12763;55.802;37.404;2022-11-20T13:46:04;100071.41;;;1.17;75.43
24620;BME280;12763;55.802;37.404;2022-11-20T13:48:42;100068.69;;;1.08;75.66
24620;BME280;12763;55.802;37.404;2022-11-20T14:02:16;100086.72;;;1.18;75.84
24620;BME280;12763;55.802;37.404;2022-11-20T14:04:48;100081.28;;;1.18;75.98
24620;BME280;12763;55.802;37.404;2022-11-20T14:07:17;100081.28;;;1.18;75.71
24620;BME280;12763;55.802;37.404;2022-11-20T14:09:53;100079.56;;;1.17;75.88
24620;BME280;12763;55.802;37.404;2022-11-20T14:12:22;100072.69;;;1.13;75.68
24620;BME280;12763;55.802;37.404;2022-11-20T14:14:52;100076.56;;;1.11;75.94
24620;BME280;12763;55.802;37.404;2022-11-20T14:17:22;100084.88;;;1.09;76.07
24620;BME280;12763;55.802;37.404;2022-11-20T14:19:51;100079.22;;;1.30;75.68
24620;BME280;12763;55.802;37.404;2022-11-20T14:22:20;100092.41;;;1.25;75.78
24620;BME280;12763;55.802;37.404;2022-11-20T14:24:48;100101.44;;;1.16;76.09
24620;BME280;12763;55.802;37.404;2022-11-20T14:27:21;100105.88;;;1.17;75.85
24620;BME280;12763;55.802;37.404;2022-11-20T14:29:50;100099.59;;;0.97;76.44
24620;BME280;12763;55.802;37.404;2022-11-20T14:32:27;100108.19;;;1.02;76.47
24620;BME280;12763;55.802;37.404;2022-11-20T14:35:07;100103.91;;;1.09;76.16
24620;BME280;12763;55.802;37.404;2022-11-20T14:37:41;100103.56;;;1.22;76.09